Time;durP1;ratioP1;P1;durP2;ratioP2;P2;SDS_P1;SDS_P2;PMS_P1;PMS_P2;Temp;Humidity;BMP_temperature;BMP_pressure;BME280_temperature;BME280_humidity;BME280_pressure;Samples;Min_cycle;Max_cycle;Signal;HPM_P1;HPM_P2
2021/07/24 00:00:25;;;;;;;8.60;6.95;;;25.60;71.30;;;;;;4994511;28;20195;-61
2021/07/24 00:02:52;;;;;;;7.70;6.80;;;25.60;71.20;;;;;;4993782;28;20228;-61
2021/07/24 00:05:18;;;;;;;9.00;6.88;;;25.60;71.20;;;;;;4996172;28;20209;-61
2021/07/24 00:07:45;;;;;;;7.40;6.13;;;25.60;71.30;;;;;;4998109;28;20204;-60
2021/07/24 00:10:11;;;;;;;7.25;6.55;;;25.60;71.20;;;;;;4993521;28;20204;-61
2021/07/24 00:12:38;;;;;;;7.13;6.15;;;25.60;71.40;;;;;;4992827;28;20282;-61
2021/07/24 00:15:04;;;;;;;8.13;7.20;;;25.60;72.00;;;;;;5000983;28;20687;-61
2021/07/24 00:17:30;;;;;;;7.32;6.55;;;25.60;71.30;;;;;;4993354;28;20628;-61
2021/07/24 00:19:57;;;;;;;7.95;6.10;;;25.60;71.20;;;;;;5010946;28;20673;-60
2021/07/24 00:22:23;;;;;;;7.40;6.35;;;25.60;71.20;;;;;;4993024;28;20227;-61
2021/07/24 00:24:50;;;;;;;7.93;7.07;;;25.60;71.20;;;;;;5001170;28;20215;-61
2021/07/24 00:27:16;;;;;;;8.07;6.93;;;25.60;71.30;;;;;;5000919;28;20651;-61
2021/07/24 00:29:43;;;;;;;7.72;6.35;;;25.60;71.30;;;;;;5008238;28;20643;-61
2021/07/24 00:32:09;;;;;;;7.28;6.50;;;25.60;71.30;;;;;;4989407;28;20526;-60
2021/07/24 00:34:35;;;;;;;7.38;6.57;;;25.60;71.30;;;;;;5005799;28;20320;-60
2021/07/24 00:37:02;;;;;;;8.20;6.95;;;25.60;71.30;;;;;;5003383;28;20211;-61
2021/07/24 00:39:28;;;;;;;7.68;6.57;;;25.60;71.20;;;;;;5004459;28;20234;-61
2021/07/24 00:41:55;;;;;;;7.43;6.63;;;25.60;71.20;;;;;;4996871;28;20214;-61
2021/07/24 00:44:21;;;;;;;7.97;6.72;;;25.60;71.20;;;;;;5002094;28;20203;-61
2021/07/24 00:46:48;;;;;;;8.15;6.60;;;25.60;71.20;;;;;;5005751;28;20210;-61
2021/07/24 00:49:14;;;;;;;6.85;6.15;;;25.60;71.30;;;;;;5001860;28;20207;-60
2021/07/24 00:51:44;;;;;;;6.45;5.82;;;25.60;71.20;;;;;;5005530;28;20223;-60
2021/07/24 00:54:11;;;;;;;7.75;7.00;;;25.60;71.20;;;;;;5000184;28;20761;-61
2021/07/24 00:56:37;;;;;;;6.72;6.00;;;25.60;71.10;;;;;;5006651;28;20602;-61
2021/07/24 00:59:03;;;;;;;6.55;5.90;;;25.60;71.20;;;;;;4998243;28;20566;-60
2021/07/24 01:01:30;;;;;;;7.00;6.25;;;25.60;71.20;;;;;;4993884;28;20673;-60
2021/07/24 01:03:57;;;;;;;7.45;6.70;;;25.60;71.90;;;;;;4993096;28;20689;-60
2021/07/24 01:06:23;;;;;;;7.57;6.68;;;25.60;71.30;;;;;;4985419;28;20295;-59
2021/07/24 01:08:50;;;;;;;7.93;6.32;;;25.60;71.20;;;;;;4992753;28;20214;-60
2021/07/24 01:11:16;;;;;;;7.78;6.75;;;25.60;71.20;;;;;;4991849;28;20303;-60
2021/07/24 01:13:42;;;;;;;6.78;6.10;;;25.60;71.20;;;;;;4989130;28;20243;-60
2021/07/24 01:16:09;;;;;;;7.10;6.18;;;25.60;71.20;;;;;;5007869;28;20205;-60
2021/07/24 01:18:35;;;;;;;7.05;6.32;;;25.60;71.20;;;;;;4994740;28;20200;-60
2021/07/24 01:21:02;;;;;;;7.13;6.28;;;25.60;71.20;;;;;;5005283;28;20203;-60
2021/07/24 01:23:28;;;;;;;7.22;6.10;;;25.60;71.20;;;;;;4992295;28;20302;-60
2021/07/24 01:25:55;;;;;;;5.95;5.35;;;25.60;71.20;;;;;;5005461;28;20208;-60
2021/07/24 01:28:21;;;;;;;7.03;6.32;;;25.60;71.20;;;;;;4997499;28;20218;-60
2021/07/24 01:30:47;;;;;;;6.60;5.88;;;25.60;71.10;;;;;;5006524;28;20200;-59
2021/07/24 01:33:14;;;;;;;6.55;5.75;;;25.60;71.10;;;;;;4997734;28;20226;-59
2021/07/24 01:35:40;;;;;;;6.22;5.63;;;25.60;71.10;;;;;;5005863;28;20310;-60
2021/07/24 01:38:07;;;;;;;7.28;6.32;;;25.60;71.20;;;;;;4995411;28;20231;-60
2021/07/24 01:40:34;;;;;;;6.93;5.80;;;25.60;71.10;;;;;;5008987;28;20683;-60
2021/07/24 01:43:00;;;;;;;6.32;5.63;;;25.60;71.10;;;;;;5008146;28;20295;-60
2021/07/24 01:45:26;;;;;;;6.60;5.90;;;25.60;71.10;;;;;;5007326;28;20212;-60
2021/07/24 01:47:53;;;;;;;6.68;5.97;;;25.60;71.20;;;;;;4992755;28;20200;-60
2021/07/24 01:53:03;;;;;;;6.82;6.00;;;25.60;71.20;;;;;;5008677;28;20211;-60
2021/07/24 01:55:30;;;;;;;5.93;5.32;;;25.60;71.10;;;;;;4992498;28;20200;-60
2021/07/24 01:57:56;;;;;;;6.80;6.10;;;25.60;71.10;;;;;;5002421;28;20204;-60
2021/07/24 02:00:23;;;;;;;7.07;6.40;;;25.60;71.10;;;;;;4992978;28;20289;-59
2021/07/24 02:02:49;;;;;;;6.47;5.88;;;25.60;71.10;;;;;;4992445;28;20223;-60
2021/07/24 02:05:15;;;;;;;6.30;5.70;;;25.60;71.10;;;;;;4992744;28;20202;-60
2021/07/24 02:07:42;;;;;;;6.85;6.15;;;25.60;71.10;;;;;;4992038;28;20675;-60
2021/07/24 02:10:08;;;;;;;6.65;5.45;;;25.60;71.10;;;;;;4993121;28;20547;-60
2021/07/24 02:12:35;;;;;;;6.70;5.70;;;25.60;71.00;;;;;;5003649;28;20584;-60
2021/07/24 02:15:02;;;;;;;6.15;5.38;;;25.60;71.00;;;;;;4990660;28;20223;-60
2021/07/24 02:17:28;;;;;;;6.35;5.75;;;25.60;71.00;;;;;;5011521;28;20211;-60
2021/07/24 02:19:55;;;;;;;6.50;5.85;;;25.60;71.00;;;;;;4991690;28;20552;-63
2021/07/24 02:22:21;;;;;;;6.18;5.57;;;25.60;71.00;;;;;;5006348;28;20619;-60
2021/07/24 02:24:47;;;;;;;6.32;5.72;;;25.60;71.20;;;;;;4990491;28;20558;-60
2021/07/24 02:27:14;;;;;;;5.97;5.38;;;25.60;71.10;;;;;;5009453;28;20199;-60
2021/07/24 02:29:40;;;;;;;6.47;5.88;;;25.60;71.00;;;;;;4999010;28;20209;-60
2021/07/24 02:32:07;;;;;;;7.75;5.72;;;25.60;71.10;;;;;;4988043;28;20230;-60
2021/07/24 02:34:33;;;;;;;5.70;5.18;;;25.60;71.20;;;;;;4976487;28;20232;-60
2021/07/24 02:37:00;;;;;;;6.70;6.00;;;25.60;71.20;;;;;;4994250;28;20199;-60
2021/07/24 02:39:26;;;;;;;6.10;5.22;;;25.60;71.10;;;;;;4996023;28;20204;-60
2021/07/24 02:41:52;;;;;;;7.93;6.32;;;25.60;71.00;;;;;;5006428;28;20299;-59
2021/07/24 02:44:19;;;;;;;6.72;5.20;;;25.60;71.00;;;;;;5007777;28;20207;-60
2021/07/24 02:46:45;;;;;;;6.03;5.43;;;25.60;71.00;;;;;;5000606;28;20274;-60
2021/07/24 02:49:12;;;;;;;6.05;5.45;;;25.60;70.90;;;;;;4991957;28;20226;-60
2021/07/24 02:51:38;;;;;;;6.90;6.20;;;25.60;70.90;;;;;;5003657;28;20672;-60
2021/07/24 02:54:05;;;;;;;6.03;5.43;;;25.60;70.90;;;;;;4991157;28;20517;-60
2021/07/24 02:56:31;;;;;;;6.60;5.90;;;25.60;70.90;;;;;;5000761;28;20578;-60
2021/07/24 02:58:58;;;;;;;5.80;5.30;;;25.60;70.90;;;;;;4991666;28;20291;-59
2021/07/24 03:01:24;;;;;;;6.05;5.45;;;25.60;70.90;;;;;;4991173;28;20207;-60
2021/07/24 03:03:51;;;;;;;6.88;5.80;;;25.60;70.90;;;;;;4992312;28;20234;-60
2021/07/24 03:06:17;;;;;;;6.45;5.22;;;25.60;70.90;;;;;;5000850;28;20199;-60
2021/07/24 03:08:44;;;;;;;6.25;5.65;;;25.60;70.90;;;;;;4991688;28;20203;-59
2021/07/24 03:11:10;;;;;;;5.78;5.28;;;25.60;71.00;;;;;;4991274;28;20216;-60
2021/07/24 03:13:37;;;;;;;5.93;5.32;;;25.60;71.00;;;;;;4998697;28;20237;-60
2021/07/24 03:16:03;;;;;;;6.82;6.15;;;25.50;70.90;;;;;;4997814;28;20214;-62
2021/07/24 03:18:29;;;;;;;6.50;5.80;;;25.60;71.00;;;;;;5002589;28;20207;-60
2021/07/24 03:20:56;;;;;;;6.05;5.45;;;25.60;71.00;;;;;;4994769;28;20212;-60
2021/07/24 03:23:22;;;;;;;6.18;5.18;;;25.50;71.00;;;;;;4991398;28;20287;-60
2021/07/24 03:25:49;;;;;;;6.70;5.88;;;25.60;71.10;;;;;;4996244;28;20206;-60
2021/07/24 03:28:15;;;;;;;5.43;4.68;;;25.50;70.90;;;;;;4998417;28;20203;-60
2021/07/24 03:30:42;;;;;;;6.00;4.97;;;25.50;71.00;;;;;;4993027;28;20210;-60
2021/07/24 03:33:08;;;;;;;6.13;5.53;;;25.50;70.90;;;;;;4992409;28;20226;-60
2021/07/24 03:35:35;;;;;;;5.65;5.15;;;25.50;71.00;;;;;;4992556;28;20238;-60
2021/07/24 03:38:01;;;;;;;5.88;5.28;;;25.50;71.00;;;;;;5004164;28;20242;-60
2021/07/24 03:40:28;;;;;;;5.57;5.00;;;25.50;71.10;;;;;;4995028;28;20210;-60
2021/07/24 03:42:55;;;;;;;5.90;5.30;;;25.50;71.00;;;;;;5000511;28;20219;-61
2021/07/24 03:45:21;;;;;;;6.07;5.35;;;25.50;71.10;;;;;;4994411;28;20216;-60
2021/07/24 03:47:47;;;;;;;6.53;5.75;;;25.50;71.10;;;;;;5004379;28;20222;-61
2021/07/24 03:50:14;;;;;;;6.25;5.43;;;25.60;71.30;;;;;;5003142;28;20218;-61
2021/07/24 03:52:40;;;;;;;5.45;4.95;;;25.50;71.10;;;;;;5002517;28;20224;-61
2021/07/24 03:55:07;;;;;;;5.78;5.22;;;25.50;71.10;;;;;;4994487;28;20227;-61
2021/07/24 03:57:33;;;;;;;5.82;5.32;;;25.50;71.20;;;;;;4995247;28;20199;-61
2021/07/24 04:00:02;;;;;;;5.32;4.82;;;25.50;71.20;;;;;;4999764;28;20204;-61
2021/07/24 04:02:29;;;;;;;5.65;5.05;;;25.50;71.20;;;;;;5002373;28;20310;-61
2021/07/24 04:04:55;;;;;;;5.43;4.93;;;25.50;71.20;;;;;;4994555;28;20200;-61
2021/07/24 04:07:22;;;;;;;6.05;5.45;;;25.50;71.30;;;;;;4995243;28;20219;-61
2021/07/24 04:09:48;;;;;;;6.35;4.97;;;25.50;71.20;;;;;;5000059;28;20229;-61
2021/07/24 04:12:15;;;;;;;5.93;5.15;;;25.50;71.20;;;;;;5005959;28;20308;-60
2021/07/24 04:14:41;;;;;;;5.65;5.15;;;25.50;71.10;;;;;;4998765;28;20244;-61
2021/07/24 04:17:08;;;;;;;6.25;5.65;;;25.50;71.20;;;;;;4994782;28;20208;-61
2021/07/24 04:19:34;;;;;;;5.97;5.43;;;25.50;71.20;;;;;;4998531;28;20199;-61
2021/07/24 04:22:01;;;;;;;5.38;4.60;;;25.50;71.40;;;;;;5000834;28;20223;-61
2021/07/24 04:24:27;;;;;;;5.55;5.05;;;25.50;71.40;;;;;;4996328;28;20294;-61
2021/07/24 04:26:54;;;;;;;5.85;5.25;;;25.50;71.30;;;;;;4998176;28;20208;-61
2021/07/24 04:29:20;;;;;;;5.72;5.22;;;25.50;71.30;;;;;;4994683;28;20226;-61
2021/07/24 04:31:47;;;;;;;5.53;5.03;;;25.60;71.40;;;;;;4999298;28;20245;-61
2021/07/24 04:34:13;;;;;;;5.35;4.85;;;25.50;71.20;;;;;;4992495;28;20224;-60
2021/07/24 04:36:39;;;;;;;5.90;5.20;;;25.50;71.20;;;;;;4994076;28;20291;-61
2021/07/24 04:39:06;;;;;;;5.22;4.72;;;25.50;71.20;;;;;;4995776;28;20210;-61
2021/07/24 04:41:32;;;;;;;5.38;4.88;;;25.50;71.20;;;;;;5003515;28;20222;-61
2021/07/24 04:43:59;;;;;;;5.53;5.03;;;25.50;71.20;;;;;;4992150;28;20239;-62
2021/07/24 04:46:25;;;;;;;5.85;5.00;;;25.50;71.20;;;;;;4994930;28;20214;-61
2021/07/24 04:48:52;;;;;;;5.75;5.10;;;25.50;71.20;;;;;;4991870;28;20214;-61
2021/07/24 04:51:18;;;;;;;5.75;5.15;;;25.50;71.20;;;;;;4994522;28;20219;-61
2021/07/24 04:53:44;;;;;;;6.57;5.05;;;25.50;71.10;;;;;;4992831;28;20258;-61
2021/07/24 04:56:11;;;;;;;5.60;5.00;;;25.50;71.10;;;;;;4994421;28;20231;-61
2021/07/24 04:58:37;;;;;;;5.57;5.07;;;25.50;71.20;;;;;;4994640;28;20200;-61
2021/07/24 05:01:04;;;;;;;5.47;4.97;;;25.50;71.20;;;;;;4993789;28;20196;-61
2021/07/24 05:03:30;;;;;;;5.80;5.30;;;25.50;71.20;;;;;;5001138;28;20204;-61
2021/07/24 05:05:57;;;;;;;5.13;4.63;;;25.50;71.10;;;;;;5006846;28;20199;-61
2021/07/24 05:08:23;;;;;;;5.47;4.95;;;25.50;71.10;;;;;;5005905;28;20199;-61
2021/07/24 05:10:50;;;;;;;5.90;5.30;;;25.50;71.10;;;;;;4994067;28;20216;-61
2021/07/24 05:13:16;;;;;;;5.57;5.07;;;25.50;71.20;;;;;;4992884;28;20318;-61
2021/07/24 05:15:43;;;;;;;5.63;5.13;;;25.50;71.20;;;;;;4982470;28;20232;-61
2021/07/24 05:18:09;;;;;;;5.53;5.03;;;25.50;71.20;;;;;;4982467;28;20195;-61
2021/07/24 05:20:36;;;;;;;5.75;5.15;;;25.50;71.30;;;;;;5000853;28;20199;-61
2021/07/24 05:23:02;;;;;;;5.53;4.95;;;25.50;71.20;;;;;;5008728;28;20302;-61
2021/07/24 05:25:29;;;;;;;5.78;4.85;;;25.50;71.10;;;;;;4997344;28;20225;-61
2021/07/24 05:27:55;;;;;;;4.97;4.47;;;25.50;71.10;;;;;;4997158;28;20203;-61
2021/07/24 05:30:22;;;;;;;5.32;4.82;;;25.50;71.10;;;;;;4996372;28;20203;-60
2021/07/24 05:32:48;;;;;;;5.20;4.70;;;25.50;71.10;;;;;;5000893;28;20675;-61
2021/07/24 05:35:15;;;;;;;5.32;4.82;;;25.50;71.70;;;;;;5010453;28;20349;-61
2021/07/24 05:37:41;;;;;;;6.03;4.85;;;25.50;71.10;;;;;;4996064;28;20239;-61
2021/07/24 05:40:08;;;;;;;5.55;4.43;;;25.50;71.10;;;;;;5004380;28;20211;-61
2021/07/24 05:42:34;;;;;;;5.15;4.68;;;25.50;71.00;;;;;;5004096;28;20229;-61
2021/07/24 05:45:01;;;;;;;5.32;4.82;;;25.50;71.10;;;;;;5012313;28;20209;-61
2021/07/24 05:47:27;;;;;;;5.60;5.10;;;25.50;71.00;;;;;;5000390;28;20208;-61
2021/07/24 05:49:53;;;;;;;5.53;5.03;;;25.60;71.20;;;;;;5000184;28;20199;-61
2021/07/24 05:52:21;;;;;;;5.63;5.07;;;25.60;71.20;;;;;;4992649;28;20323;-61
2021/07/24 05:54:47;;;;;;;5.35;4.85;;;25.50;71.10;;;;;;4994567;28;20228;-61
2021/07/24 05:57:14;;;;;;;5.50;4.95;;;25.60;71.20;;;;;;4993071;28;20200;-61
2021/07/24 05:59:40;;;;;;;5.63;5.13;;;25.50;71.10;;;;;;5002043;28;20205;-61
2021/07/24 06:02:07;;;;;;;5.13;4.65;;;25.60;71.10;;;;;;5012523;28;20220;-61
2021/07/24 06:04:33;;;;;;;5.40;4.90;;;25.60;71.20;;;;;;5000655;28;20213;-62
2021/07/24 06:07:00;;;;;;;6.40;5.03;;;25.50;71.00;;;;;;5012664;28;20249;-61
2021/07/24 06:09:26;;;;;;;5.78;4.82;;;25.60;71.10;;;;;;5003629;28;20200;-61
2021/07/24 06:11:52;;;;;;;5.60;4.97;;;25.60;71.10;;;;;;4991933;28;20258;-62
2021/07/24 06:14:19;;;;;;;5.03;4.57;;;25.60;71.10;;;;;;5004870;28;20206;-61
2021/07/24 06:16:46;;;;;;;5.30;4.80;;;25.50;71.00;;;;;;4998443;28;20294;-61
2021/07/24 06:19:12;;;;;;;5.82;5.32;;;25.60;71.20;;;;;;4979872;28;20204;-62
2021/07/24 06:21:39;;;;;;;5.47;4.90;;;25.60;71.10;;;;;;4987113;28;20254;-62
2021/07/24 06:24:05;;;;;;;5.25;4.72;;;25.60;71.20;;;;;;4990367;28;20212;-62
2021/07/24 06:26:31;;;;;;;5.60;5.10;;;25.60;71.20;;;;;;4992541;28;20210;-62
2021/07/24 06:28:58;;;;;;;5.60;5.03;;;25.60;71.20;;;;;;5001056;28;20207;-61
2021/07/24 06:31:26;;;;;;;5.47;4.97;;;25.60;71.30;;;;;;5000935;28;20226;-61
2021/07/24 06:33:52;;;;;;;7.13;5.00;;;25.60;71.30;;;;;;4999329;28;20547;-61
2021/07/24 06:36:18;;;;;;;5.40;4.90;;;25.60;71.30;;;;;;5008338;28;20588;-61
2021/07/24 06:38:45;;;;;;;5.28;4.80;;;25.60;71.40;;;;;;4999709;28;20568;-60
2021/07/24 06:41:13;;;;;;;5.55;5.05;;;25.60;71.40;;;;;;4991855;28;20566;-60
2021/07/24 06:43:40;;;;;;;5.28;4.80;;;25.60;71.30;;;;;;4992442;28;20624;-60
2021/07/24 06:46:06;;;;;;;5.57;4.97;;;25.60;71.40;;;;;;4991121;28;20583;-60
2021/07/24 06:48:33;;;;;;;5.78;5.18;;;25.50;71.40;;;;;;4999259;28;20290;-59
2021/07/24 06:51:00;;;;;;;5.07;4.57;;;25.60;71.50;;;;;;4991646;28;20303;-60
2021/07/24 06:53:26;;;;;;;5.72;4.63;;;25.60;71.60;;;;;;5009502;28;20730;-61
2021/07/24 06:55:52;;;;;;;5.35;4.78;;;25.60;71.60;;;;;;4993641;28;20793;-59
2021/07/24 06:58:19;;;;;;;5.32;4.53;;;25.60;72.10;;;;;;5001031;28;20520;-59
2021/07/24 07:00:45;;;;;;;5.10;4.60;;;25.60;72.20;;;;;;4992348;28;20707;-60
2021/07/24 07:03:12;;;;;;;6.60;4.72;;;25.60;72.50;;;;;;5005849;28;20710;-60
2021/07/24 07:05:38;;;;;;;5.78;4.70;;;25.60;72.40;;;;;;5011048;28;20547;-60
2021/07/24 07:08:05;;;;;;;5.43;4.50;;;25.60;72.30;;;;;;4998679;28;20681;-60
2021/07/24 07:10:31;;;;;;;7.65;5.07;;;25.60;72.20;;;;;;4991021;28;20570;-60
2021/07/24 07:12:58;;;;;;;5.25;4.72;;;25.60;72.20;;;;;;5001961;28;20667;-60
2021/07/24 07:15:25;;;;;;;6.43;4.63;;;25.70;72.20;;;;;;4974800;28;20582;-59
2021/07/24 07:17:52;;;;;;;5.85;4.95;;;25.60;72.10;;;;;;4993734;28;20242;-60
2021/07/24 07:20:18;;;;;;;6.90;4.95;;;25.60;72.20;;;;;;4979294;28;20692;-60
2021/07/24 07:22:45;;;;;;;6.43;4.80;;;25.60;72.10;;;;;;4994867;28;20326;-60
2021/07/24 07:25:11;;;;;;;4.72;4.28;;;25.60;72.10;;;;;;4989530;28;20572;-59
2021/07/24 07:27:38;;;;;;;5.30;4.80;;;25.60;72.00;;;;;;4998336;28;20712;-60
2021/07/24 07:30:04;;;;;;;5.25;4.72;;;25.60;72.00;;;;;;4991788;28;20687;-60
2021/07/24 07:32:31;;;;;;;5.72;5.18;;;25.70;72.10;;;;;;5008676;28;20604;-60
2021/07/24 07:34:57;;;;;;;5.47;4.97;;;25.70;72.00;;;;;;5007856;28;20609;-60
2021/07/24 07:37:24;;;;;;;5.93;5.32;;;25.70;71.90;;;;;;4995678;28;20290;-60
2021/07/24 07:39:50;;;;;;;5.60;5.10;;;25.70;71.90;;;;;;4991355;28;20210;-60
2021/07/24 07:42:16;;;;;;;6.00;4.90;;;25.70;71.70;;;;;;4994426;28;20227;-59
2021/07/24 07:44:43;;;;;;;5.40;4.90;;;25.70;71.70;;;;;;4997351;28;20272;-60
2021/07/24 07:47:09;;;;;;;6.47;4.93;;;25.70;71.60;;;;;;5004329;28;20205;-59
2021/07/24 07:49:36;;;;;;;5.82;4.97;;;25.70;71.60;;;;;;5011056;28;20630;-59
2021/07/24 07:52:02;;;;;;;5.45;4.95;;;25.70;71.50;;;;;;4996131;28;20702;-59
2021/07/24 07:54:32;;;;;;;6.22;5.07;;;25.70;71.50;;;;;;5000960;28;20225;-59
2021/07/24 07:56:59;;;;;;;8.20;5.10;;;25.70;71.50;;;;;;5008778;28;20227;-59
2021/07/24 07:59:25;;;;;;;5.85;5.25;;;25.70;71.50;;;;;;5010891;28;20298;-59
2021/07/24 08:01:52;;;;;;;5.32;4.32;;;25.70;71.50;;;;;;5002304;28;20220;-59
2021/07/24 08:04:18;;;;;;;5.20;4.70;;;25.70;71.50;;;;;;5003582;28;20203;-59
2021/07/24 08:06:45;;;;;;;6.85;5.35;;;25.70;71.40;;;;;;4992415;28;20200;-58
2021/07/24 08:09:11;;;;;;;5.85;4.85;;;25.70;72.20;;;;;;5002238;28;20206;-60
2021/07/24 08:11:38;;;;;;;6.95;5.20;;;25.70;72.20;;;;;;4991318;28;20219;-60
2021/07/24 08:14:04;;;;;;;6.15;5.20;;;25.70;71.90;;;;;;5002470;28;20206;-60
2021/07/24 08:16:30;;;;;;;9.10;5.72;;;25.70;71.90;;;;;;4983531;28;20228;-57
2021/07/24 08:18:57;;;;;;;7.45;5.00;;;25.60;72.50;;;;;;4991785;28;20299;-59
2021/07/24 08:21:23;;;;;;;8.10;5.43;;;25.70;72.60;;;;;;4993311;28;20234;-58
2021/07/24 08:23:50;;;;;;;8.77;6.20;;;25.70;72.20;;;;;;4995573;28;20200;-63
2021/07/24 08:26:16;;;;;;;7.85;6.18;;;25.70;73.60;;;;;;4996090;28;20208;-62
2021/07/24 08:28:43;;;;;;;10.18;5.90;;;25.70;72.60;;;;;;4986974;28;20347;-60
2021/07/24 08:31:09;;;;;;;10.57;5.68;;;25.70;72.70;;;;;;4993558;28;20216;-58
2021/07/24 08:33:36;;;;;;;12.15;6.10;;;25.70;73.70;;;;;;4988628;28;20234;-59
2021/07/24 08:36:02;;;;;;;8.27;6.03;;;25.70;73.00;;;;;;4999853;28;20475;-57
2021/07/24 08:38:28;;;;;;;11.18;6.50;;;25.70;72.60;;;;;;4993673;28;20251;-59
2021/07/24 08:40:55;;;;;;;9.70;5.80;;;25.70;72.60;;;;;;4991585;28;20212;-60
2021/07/24 08:43:22;;;;;;;7.22;5.57;;;25.70;72.60;;;;;;4999955;28;20203;-58
2021/07/24 08:45:48;;;;;;;14.48;8.52;;;25.70;72.60;;;;;;5003314;28;20235;-59
2021/07/24 08:48:15;;;;;;;13.00;10.90;;;25.60;73.20;;;;;;4996016;28;20214;-57
2021/07/24 08:50:41;;;;;;;15.18;11.45;;;25.30;71.50;;;;;;4996184;28;20245;-59
2021/07/24 08:53:08;;;;;;;14.65;10.57;;;24.70;71.60;;;;;;5010419;28;20266;-60
2021/07/24 08:55:34;;;;;;;13.52;10.32;;;24.70;72.80;;;;;;4991811;28;20232;-60
2021/07/24 08:58:01;;;;;;;11.45;9.90;;;24.90;73.20;;;;;;5000396;28;20207;-61
2021/07/24 09:00:28;;;;;;;12.98;10.07;;;25.10;73.80;;;;;;4993866;28;20227;-61
2021/07/24 09:02:54;;;;;;;11.15;9.35;;;25.20;73.20;;;;;;5010978;28;20293;-60
2021/07/24 09:05:20;;;;;;;10.90;9.63;;;25.30;72.90;;;;;;4995005;28;20209;-60
2021/07/24 09:07:47;;;;;;;11.48;9.85;;;25.40;72.40;;;;;;4993085;28;20218;-60
2021/07/24 09:10:13;;;;;;;11.48;10.27;;;25.40;72.40;;;;;;4976467;28;20208;-60
2021/07/24 09:12:40;;;;;;;10.57;9.05;;;25.40;72.30;;;;;;5004335;28;20208;-60
2021/07/24 09:15:06;;;;;;;10.18;9.05;;;25.50;72.50;;;;;;5009211;28;20229;-60
2021/07/24 09:17:33;;;;;;;11.32;9.77;;;25.50;72.40;;;;;;4999262;28;20207;-60
2021/07/24 09:19:59;;;;;;;9.80;8.77;;;25.50;72.50;;;;;;4995288;28;20204;-61
2021/07/24 09:22:26;;;;;;;13.88;9.82;;;25.50;72.50;;;;;;5000836;28;20219;-61
2021/07/24 09:24:52;;;;;;;11.55;10.13;;;25.50;72.50;;;;;;4990106;28;20207;-61
2021/07/24 09:27:19;;;;;;;11.27;9.70;;;25.50;72.50;;;;;;4996643;28;20206;-60
2021/07/24 09:29:45;;;;;;;13.45;10.15;;;25.50;72.50;;;;;;5007573;28;20314;-62
2021/07/24 09:32:12;;;;;;;13.88;10.95;;;25.50;72.50;;;;;;5008288;28;20223;-62
2021/07/24 09:34:39;;;;;;;14.32;10.10;;;25.50;72.50;;;;;;4994947;28;20218;-62
2021/07/24 09:37:05;;;;;;;11.85;9.93;;;25.50;72.50;;;;;;4984334;28;20291;-62
2021/07/24 09:39:32;;;;;;;11.75;9.95;;;25.50;72.50;;;;;;4989523;28;20216;-62
2021/07/24 09:41:58;;;;;;;10.02;9.02;;;25.50;72.40;;;;;;5000290;28;20598;-62
2021/07/24 09:44:24;;;;;;;11.27;9.43;;;25.60;72.10;;;;;;5004361;28;20673;-62
2021/07/24 09:46:51;;;;;;;10.10;9.10;;;25.60;72.00;;;;;;5002990;28;20210;-61
2021/07/24 09:49:17;;;;;;;9.75;8.32;;;25.60;72.50;;;;;;4996086;28;20212;-61
2021/07/24 09:51:45;;;;;;;10.55;9.13;;;25.60;72.50;;;;;;4994056;28;20228;-63
2021/07/24 09:54:11;;;;;;;10.10;9.00;;;25.60;72.50;;;;;;4998278;28;20304;-60
2021/07/24 09:56:38;;;;;;;10.95;9.15;;;25.60;72.50;;;;;;5008043;28;20317;-62
2021/07/24 09:59:05;;;;;;;9.77;8.77;;;25.60;72.50;;;;;;4980337;28;20212;-62
2021/07/24 10:01:31;;;;;;;11.85;9.25;;;25.60;72.50;;;;;;4989415;28;20594;-62
2021/07/24 10:03:58;;;;;;;13.38;9.77;;;25.60;72.50;;;;;;4993606;28;20206;-63
2021/07/24 10:06:24;;;;;;;10.65;9.50;;;25.60;71.30;;;;;;4986210;28;20195;-60
2021/07/24 10:08:51;;;;;;;10.07;9.07;;;25.50;71.80;;;;;;4993540;28;20685;-58
2021/07/24 10:11:18;;;;;;;10.80;8.75;;;25.60;72.10;;;;;;4994934;28;20224;-59
2021/07/24 10:13:44;;;;;;;11.13;8.80;;;25.60;72.00;;;;;;5003775;28;20199;-58
2021/07/24 10:16:10;;;;;;;9.57;8.52;;;25.60;72.40;;;;;;5006609;28;20230;-59
2021/07/24 10:18:37;;;;;;;10.05;8.73;;;25.60;72.10;;;;;;4999148;28;22275;-59
2021/07/24 10:21:04;;;;;;;9.77;8.63;;;25.70;72.00;;;;;;4995573;28;20219;-59
2021/07/24 10:23:30;;;;;;;9.68;8.73;;;25.70;72.00;;;;;;5001376;28;20688;-59
2021/07/24 10:25:56;;;;;;;12.98;9.88;;;25.70;71.70;;;;;;5003293;28;20298;-61
2021/07/24 10:28:23;;;;;;;10.63;9.25;;;25.50;68.90;;;;;;5003843;28;20211;-59
2021/07/24 10:30:49;;;;;;;10.18;9.07;;;25.40;70.80;;;;;;4998740;28;20224;-59
2021/07/24 10:33:16;;;;;;;9.40;8.50;;;25.50;71.10;;;;;;5005308;28;20204;-59
2021/07/24 10:35:42;;;;;;;11.05;8.88;;;25.60;71.30;;;;;;4993805;28;20263;-59
2021/07/24 10:38:09;;;;;;;9.68;7.93;;;25.60;71.20;;;;;;5002221;28;20501;-60
2021/07/24 10:40:35;;;;;;;10.25;9.23;;;25.60;71.30;;;;;;5006810;28;20227;-60
2021/07/24 10:43:06;;;;;;;8.48;7.68;;;25.60;71.40;;;;;;4995775;28;20249;-59
2021/07/24 10:45:32;;;;;;;8.90;8.00;;;25.60;71.40;;;;;;4998509;28;20226;-59
2021/07/24 10:47:59;;;;;;;9.70;8.20;;;25.60;71.20;;;;;;4999341;28;20735;-60
2021/07/24 10:50:25;;;;;;;10.32;8.25;;;25.70;71.10;;;;;;4991342;28;20231;-60
2021/07/24 10:52:52;;;;;;;9.50;8.40;;;25.70;71.10;;;;;;4998988;28;20210;-61
2021/07/24 10:55:19;;;;;;;10.93;9.82;;;25.70;71.20;;;;;;4998595;28;20214;-61
2021/07/24 10:57:46;;;;;;;10.30;8.88;;;25.70;71.50;;;;;;5007054;28;20270;-58
2021/07/24 11:00:12;;;;;;;10.02;8.98;;;25.70;71.40;;;;;;5000523;28;20563;-61
2021/07/24 11:02:39;;;;;;;9.88;7.63;;;25.70;71.40;;;;;;5008256;28;20546;-58
2021/07/24 11:05:05;;;;;;;10.90;7.93;;;25.80;71.40;;;;;;5006177;28;20633;-59
2021/07/24 11:07:32;;;;;;;9.25;8.00;;;25.80;71.40;;;;;;4991064;28;20582;-59
2021/07/24 11:09:59;;;;;;;8.50;7.47;;;25.80;71.40;;;;;;4998200;28;20245;-56
2021/07/24 11:12:26;;;;;;;10.18;8.50;;;25.80;71.40;;;;;;5007332;28;20290;-57
2021/07/24 11:14:53;;;;;;;9.20;8.20;;;25.80;71.30;;;;;;4991139;28;20214;-60
2021/07/24 11:17:19;;;;;;;9.68;8.57;;;25.80;71.30;;;;;;4980456;28;20692;-59
2021/07/24 11:19:46;;;;;;;10.82;8.73;;;25.80;71.30;;;;;;4991774;28;20237;-59
2021/07/24 11:22:12;;;;;;;9.80;8.80;;;25.80;71.30;;;;;;4995029;28;20229;-62
2021/07/24 11:24:38;;;;;;;9.98;8.25;;;25.80;71.40;;;;;;4991243;28;20203;-62
2021/07/24 11:27:05;;;;;;;9.38;8.48;;;25.80;71.40;;;;;;5000136;28;20199;-61
2021/07/24 11:29:31;;;;;;;9.02;8.13;;;25.80;71.30;;;;;;5002872;28;20204;-61
2021/07/24 11:31:58;;;;;;;10.10;8.15;;;25.80;71.50;;;;;;5002273;28;20254;-61
2021/07/24 11:34:24;;;;;;;9.70;8.70;;;25.80;71.30;;;;;;4997980;28;20211;-58
2021/07/24 11:36:51;;;;;;;9.35;8.35;;;25.80;71.70;;;;;;4997994;28;20234;-59
2021/07/24 11:39:17;;;;;;;9.75;8.68;;;25.90;71.60;;;;;;4999627;28;20199;-59
2021/07/24 11:41:43;;;;;;;9.70;8.18;;;25.90;71.50;;;;;;4992414;28;20779;-61
2021/07/24 11:44:10;;;;;;;10.27;9.07;;;25.80;71.80;;;;;;5000286;28;20199;-59
2021/07/24 11:46:36;;;;;;;9.65;8.52;;;25.90;71.60;;;;;;5001099;28;20205;-60
2021/07/24 11:49:03;;;;;;;9.75;7.95;;;25.90;71.60;;;;;;5010693;28;20242;-59
2021/07/24 11:51:29;;;;;;;9.55;8.52;;;25.90;71.50;;;;;;4988491;28;20686;-60
2021/07/24 11:53:56;;;;;;;9.40;8.30;;;25.90;71.60;;;;;;4988925;28;20525;-59
2021/07/24 11:56:22;;;;;;;9.40;8.43;;;25.90;71.60;;;;;;4990691;28;20982;-58
2021/07/24 11:58:49;;;;;;;10.27;8.38;;;25.90;71.50;;;;;;4986281;28;20287;-58
2021/07/24 12:01:15;;;;;;;13.48;10.45;;;25.90;71.50;;;;;;4993846;28;20218;-58
2021/07/24 12:03:42;;;;;;;14.45;9.98;;;25.90;71.40;;;;;;4995170;28;20199;-58
2021/07/24 12:06:09;;;;;;;12.20;9.68;;;25.90;71.40;;;;;;4989779;28;20200;-59
2021/07/24 12:08:35;;;;;;;32.00;16.05;;;25.90;71.30;;;;;;4994962;28;20302;-60
2021/07/24 12:11:02;;;;;;;26.83;15.93;;;25.90;71.30;;;;;;4992677;28;20231;-59
2021/07/24 12:13:28;;;;;;;26.05;17.75;;;25.90;71.30;;;;;;4989251;28;20295;-58
2021/07/24 12:15:54;;;;;;;21.55;15.48;;;25.90;71.30;;;;;;4993736;28;20483;-58
2021/07/24 12:18:21;;;;;;;33.85;19.23;;;25.90;71.40;;;;;;4995112;28;20204;-58
2021/07/24 12:20:49;;;;;;;37.33;21.88;;;25.90;71.40;;;;;;4991484;28;20223;-57
2021/07/24 12:23:15;;;;;;;33.70;19.38;;;25.90;71.40;;;;;;4992677;28;20218;-58
2021/07/24 12:25:41;;;;;;;33.15;20.73;;;25.90;71.30;;;;;;4991337;28;20199;-58
2021/07/24 12:28:08;;;;;;;42.78;29.33;;;25.90;71.30;;;;;;4991038;28;20206;-59
2021/07/24 12:30:34;;;;;;;134.73;113.53;;;25.90;71.40;;;;;;4992391;28;20599;-60
2021/07/24 12:33:01;;;;;;;192.50;171.02;;;25.90;71.40;;;;;;4994305;28;20609;-60
2021/07/24 12:35:28;;;;;;;153.13;136.55;;;25.90;71.40;;;;;;5000161;28;20656;-60
2021/07/24 12:37:54;;;;;;;177.52;154.23;;;25.90;71.40;;;;;;5012230;28;20245;-59
2021/07/24 12:40:21;;;;;;;175.10;155.45;;;25.90;71.60;;;;;;4995337;28;20228;-58